Grapevine, Arkansas
Current Conditions -  °F | °C
As of 11:53 PM on Sunday 21 Dec 2014 (Local Time) from KPBF Reporting Station
Clear Clear  
Wind Chill: 35°   Ceiling: Unl
Heat Index: 41°   Visibility: 10mi
Dew Point: 37°   Wind: 9mph
Humidity: 86%   Direction: 120°ESE
Pressure: 29.86"   Gusts: NA
Location:  34.15°N, 92.32°W
Report Text: KPBF 220553Z AUTO 12008KT 10SM CLR 05/03 A2986 RMK AO2 SLP112 T00500028 10083 20044 401331011 58023
Loading
Personal Weather Stations






























Interactive Weather Map New forecast layout! Learn more

10-Day Weather Forecast

Advertisements
Track Severe Weather on mobile